createdAt,value
2022-10-15T00:12:07.345Z,96.61
2022-10-15T00:13:07.370Z,96.32
2022-10-15T00:14:07.354Z,96.51
2022-10-15T00:15:07.360Z,96.51
2022-10-15T00:16:07.355Z,96.51
2022-10-15T00:17:07.364Z,96.42
2022-10-15T00:18:07.371Z,96.42
2022-10-15T00:19:07.387Z,95.94
2022-10-15T00:20:07.388Z,96.51
2022-10-15T00:21:07.403Z,96.42
2022-10-15T00:22:07.406Z,95.94
2022-10-15T00:23:07.420Z,95.51
2022-10-15T00:24:07.423Z,95.56
2022-10-15T00:25:07.425Z,95.56
2022-10-15T00:26:07.439Z,95.56
2022-10-15T00:27:07.448Z,95.46
2022-10-15T00:28:07.476Z,96.27
2022-10-15T00:29:07.516Z,96.13
2022-10-15T00:30:07.470Z,96.22
2022-10-15T00:31:07.479Z,96.08
2022-10-15T00:55:04.237Z,97.52
2022-10-15T00:56:04.215Z,97.66
2022-10-15T00:57:04.221Z,97.85
2022-10-15T00:58:04.296Z,97.42
2022-10-15T00:59:04.237Z,97.61
2022-10-15T01:00:04.253Z,97.23
2022-10-15T01:01:04.300Z,97.33
2022-10-15T01:02:04.266Z,97.33
2022-10-15T01:03:04.275Z,97.33
2022-10-15T01:04:04.276Z,97.42
2022-10-15T01:05:04.285Z,97.33
2022-10-15T01:06:04.299Z,97.42
2022-10-15T01:07:04.344Z,97.42
2022-10-15T01:08:04.315Z,97.85
2022-10-15T01:09:04.347Z,97.80
2022-10-15T01:10:04.330Z,98.05
2022-10-15T01:11:04.353Z,97.47
2022-10-15T01:12:04.344Z,97.56
2022-10-15T01:13:04.346Z,97.75
2022-10-15T01:14:04.350Z,97.95
2022-10-15T01:15:04.365Z,97.75
2022-10-15T01:16:04.420Z,97.38
2022-10-15T01:17:04.382Z,97.42
2022-10-15T01:18:04.387Z,97.80
2022-10-15T01:19:04.396Z,97.47
2022-10-15T01:20:04.412Z,97.85
2022-10-15T01:21:04.412Z,97.47
2022-10-15T01:22:04.415Z,97.85
2022-10-15T01:23:04.419Z,98.05
2022-10-15T01:24:04.435Z,97.66
2022-10-15T01:25:04.527Z,97.47
2022-10-15T01:26:04.448Z,97.47
2022-10-15T01:27:04.477Z,98.05
2022-10-15T01:28:04.464Z,97.75
2022-10-15T01:29:04.473Z,98.14
2022-10-15T01:30:04.474Z,98.24
2022-10-15T01:31:04.479Z,98.14
2022-10-15T01:32:04.496Z,97.85
2022-10-15T01:33:04.505Z,98.09
2022-10-15T01:34:04.635Z,98.05
2022-10-15T01:35:04.516Z,98.24
2022-10-15T01:36:06.437Z,97.90
2022-10-15T01:37:04.532Z,98.24
2022-10-15T01:38:04.534Z,98.33
2022-10-15T01:39:04.541Z,98.33
2022-10-15T01:40:04.555Z,98.24
2022-10-15T01:41:04.564Z,98.19
2022-10-15T01:42:04.572Z,98.00
2022-10-15T01:43:04.598Z,98.00
2022-10-15T01:44:04.580Z,98.57
2022-10-15T01:45:04.594Z,98.28
2022-10-15T01:46:04.595Z,98.38
2022-10-15T01:47:04.603Z,98.28
2022-10-15T01:48:04.613Z,98.38
2022-10-15T01:49:04.620Z,98.19
2022-10-15T01:50:04.632Z,98.19
2022-10-15T01:51:04.633Z,98.19
2022-10-15T01:52:04.640Z,98.28
2022-10-15T01:53:04.649Z,98.28
2022-10-15T01:54:04.665Z,98.19
2022-10-15T01:55:04.663Z,98.19
2022-10-15T01:56:04.678Z,98.00
2022-10-15T01:57:04.678Z,99.05
2022-10-15T01:58:04.693Z,98.76
2022-10-15T01:59:04.722Z,98.76
2022-10-15T02:00:04.706Z,99.05
2022-10-15T02:01:04.789Z,98.86
2022-10-15T02:02:04.723Z,98.71
2022-10-15T02:03:04.736Z,99.00
2022-10-15T02:04:04.731Z,98.91
2022-10-15T02:05:04.799Z,99.19
2022-10-15T02:06:04.748Z,99.29
2022-10-15T02:07:04.752Z,99.29
2022-10-15T02:08:04.769Z,99.10
2022-10-15T02:09:04.769Z,99.29
2022-10-15T02:10:04.785Z,99.19
2022-10-15T02:11:04.784Z,99.29
2022-10-15T02:12:04.793Z,99.00
2022-10-15T02:13:04.807Z,99.19
2022-10-15T02:14:04.819Z,99.19
2022-10-15T02:15:04.835Z,99.10
2022-10-15T02:16:04.832Z,99.10
2022-10-15T02:17:04.837Z,98.81
2022-10-15T02:18:04.839Z,99.10
2022-10-15T02:19:04.852Z,99.10
2022-10-15T02:20:04.862Z,98.81
2022-10-15T02:21:04.861Z,99.19
2022-10-15T02:22:04.876Z,98.91
2022-10-15T02:23:04.878Z,99.29
2022-10-15T02:24:04.892Z,98.91
2022-10-15T02:25:04.902Z,99.10
2022-10-15T02:26:04.907Z,98.91
2022-10-15T02:27:04.917Z,99.10
2022-10-15T02:28:04.916Z,99.00
2022-10-15T02:29:05.147Z,99.10
2022-10-15T02:30:04.939Z,98.91
2022-10-15T02:31:04.968Z,99.96
2022-10-15T02:32:04.953Z,99.19
2022-10-15T02:33:04.956Z,99.58
2022-10-15T02:34:04.963Z,99.77
2022-10-15T02:35:04.978Z,99.58
2022-10-15T02:36:04.986Z,98.91
2022-10-15T02:37:04.996Z,98.91
2022-10-15T02:38:05.043Z,99.19
2022-10-15T02:39:05.002Z,99.19
2022-10-15T02:40:05.010Z,99.19
2022-10-15T02:41:05.026Z,99.38
2022-10-15T02:42:05.033Z,99.19
2022-10-15T02:43:05.041Z,99.10
2022-10-15T02:44:05.040Z,99.38
2022-10-15T02:45:05.050Z,98.91
2022-10-15T02:46:05.056Z,99.19
2022-10-15T02:47:05.087Z,98.95
2022-10-15T02:48:05.074Z,99.19
2022-10-15T02:49:05.088Z,99.77
2022-10-15T02:50:05.088Z,99.77
2022-10-15T02:51:05.095Z,99.48
2022-10-15T02:52:05.110Z,99.19
2022-10-15T02:53:05.119Z,99.19
2022-10-15T02:54:05.127Z,99.77
2022-10-15T02:55:05.134Z,99.38
2022-10-15T02:56:05.134Z,99.38
2022-10-15T02:57:05.148Z,99.48
2022-10-15T02:58:05.150Z,99.19
2022-10-15T02:59:05.164Z,99.29
2022-10-15T03:00:05.171Z,99.38
2022-10-15T03:01:05.215Z,99.29
2022-10-15T03:02:05.182Z,99.19
2022-10-15T03:03:05.262Z,99.19
2022-10-15T03:04:05.197Z,99.19
2022-10-15T03:05:05.217Z,99.24
2022-10-15T03:06:05.215Z,99.29
2022-10-15T03:07:05.217Z,99.24
2022-10-15T03:08:05.233Z,99.29
2022-10-15T03:09:05.236Z,99.29
2022-10-15T03:10:05.247Z,99.48
2022-10-15T03:11:05.257Z,99.43
2022-10-15T03:12:05.260Z,99.33
2022-10-15T03:13:05.274Z,99.29
2022-10-15T03:14:05.284Z,99.33
2022-10-15T03:15:05.290Z,99.29
2022-10-15T03:16:05.298Z,99.43
2022-10-15T03:17:05.305Z,99.38
2022-10-15T03:18:05.306Z,99.48
2022-10-15T03:19:05.341Z,99.24
2022-10-15T03:20:05.329Z,99.33
2022-10-15T03:21:05.330Z,99.43
2022-10-15T03:22:05.347Z,99.24
2022-10-15T03:23:05.353Z,99.43
2022-10-15T03:24:05.358Z,99.52
2022-10-15T03:25:05.367Z,99.52
2022-10-15T03:26:05.373Z,99.43
2022-10-15T03:27:05.465Z,99.62
2022-10-15T03:28:05.381Z,99.15
2022-10-15T03:29:05.390Z,99.05
2022-10-15T03:30:05.403Z,99.15
2022-10-15T03:31:05.410Z,99.15
2022-10-15T03:32:05.421Z,99.05
2022-10-15T03:33:05.426Z,99.72
2022-10-15T03:34:05.435Z,99.52
2022-10-15T03:35:05.461Z,99.52
2022-10-15T03:36:05.449Z,99.33
2022-10-15T03:37:05.450Z,99.52
2022-10-15T03:38:05.461Z,99.24
2022-10-15T03:39:05.471Z,99.91
2022-10-15T03:40:08.232Z,99.99
2022-10-15T03:41:05.486Z,99.99
2022-10-15T03:42:05.493Z,99.91
2022-10-15T03:43:05.493Z,99.91
2022-10-15T03:44:05.504Z,99.99
2022-10-15T03:45:05.517Z,99.99
2022-10-15T03:46:05.522Z,99.99
2022-10-15T03:47:05.534Z,99.99
2022-10-15T03:48:05.531Z,99.99
2022-10-15T03:49:05.548Z,99.99
2022-10-15T03:50:05.566Z,99.99
2022-10-15T03:51:05.576Z,99.99
2022-10-15T03:52:05.580Z,99.99
2022-10-15T03:53:05.586Z,99.99
2022-10-15T03:54:05.588Z,99.99
2022-10-15T03:55:05.595Z,99.99
2022-10-15T03:56:05.623Z,99.99
2022-10-15T03:57:05.607Z,99.99
2022-10-15T03:58:05.631Z,99.99
2022-10-15T03:59:05.627Z,99.99
2022-10-15T04:00:05.635Z,99.99
2022-10-15T04:01:05.645Z,99.99
2022-10-15T04:02:05.641Z,99.99
2022-10-15T04:03:05.655Z,99.99
2022-10-15T04:04:05.653Z,99.99
2022-10-15T04:05:05.668Z,99.99
2022-10-15T04:06:05.670Z,99.99
2022-10-15T04:07:05.698Z,99.99
2022-10-15T04:08:05.693Z,99.99
2022-10-15T04:09:05.701Z,99.99
2022-10-15T04:10:05.708Z,99.99
2022-10-15T04:11:05.712Z,99.99
2022-10-15T04:12:05.722Z,99.99
2022-10-15T04:13:05.721Z,99.99
2022-10-15T04:14:05.730Z,99.99
2022-10-15T04:15:05.742Z,99.99
2022-10-15T04:16:05.744Z,99.99
2022-10-15T04:17:05.751Z,99.99
2022-10-15T04:18:05.770Z,99.99
2022-10-15T04:19:08.658Z,99.99
2022-10-15T04:20:05.780Z,99.99
2022-10-15T04:21:05.792Z,99.99
2022-10-15T04:22:05.798Z,99.99
2022-10-15T04:23:05.817Z,99.99
2022-10-15T04:24:05.803Z,99.99
2022-10-15T04:25:05.820Z,99.99
2022-10-15T04:26:05.818Z,99.99
2022-10-15T04:27:05.895Z,99.99
2022-10-15T04:28:05.836Z,99.99
2022-10-15T04:29:05.842Z,99.99
2022-10-15T04:30:05.858Z,99.99
2022-10-15T04:31:05.866Z,99.99
2022-10-15T04:32:05.862Z,99.99
2022-10-15T04:33:05.872Z,99.99
2022-10-15T04:34:05.881Z,99.99
2022-10-15T04:35:05.895Z,99.99
2022-10-15T04:36:05.991Z,99.99
2022-10-15T04:37:05.909Z,99.99
2022-10-15T04:38:05.916Z,99.99
2022-10-15T04:39:08.567Z,99.99
2022-10-15T04:40:05.926Z,99.99
2022-10-15T04:41:05.933Z,99.99
2022-10-15T04:42:05.950Z,99.99
2022-10-15T04:43:05.950Z,99.99
2022-10-15T04:44:05.956Z,99.99
2022-10-15T04:45:05.963Z,99.99
2022-10-15T04:46:05.977Z,99.99
2022-10-15T04:47:05.978Z,99.99
2022-10-15T04:48:05.994Z,99.99
2022-10-15T04:49:06.002Z,99.99
2022-10-15T04:50:06.009Z,99.99
2022-10-15T04:51:06.008Z,99.99
2022-10-15T04:52:06.025Z,99.99
2022-10-15T04:53:06.024Z,99.99
2022-10-15T04:54:06.034Z,99.99
2022-10-15T04:55:06.067Z,99.99
2022-10-15T04:56:06.056Z,99.99
2022-10-15T04:57:06.063Z,99.99
2022-10-15T04:58:06.064Z,99.99
2022-10-15T04:59:06.072Z,99.99
2022-10-15T05:00:06.078Z,99.99
2022-10-15T05:01:06.095Z,99.99
2022-10-15T05:02:06.163Z,99.99
2022-10-15T05:03:06.108Z,99.99
2022-10-15T05:04:06.110Z,99.99
2022-10-15T05:05:06.126Z,99.99
2022-10-15T05:06:06.127Z,99.99
2022-10-15T05:07:06.140Z,99.99
2022-10-15T05:08:06.148Z,99.99
2022-10-15T05:09:06.149Z,99.99
2022-10-15T05:10:06.157Z,99.99
2022-10-15T05:11:06.186Z,99.99
2022-10-15T05:12:06.182Z,99.99
2022-10-15T05:13:06.181Z,99.99
2022-10-15T05:14:06.198Z,99.99
2022-10-15T05:15:06.194Z,99.99
2022-10-15T05:16:06.212Z,99.99
2022-10-15T05:17:06.210Z,99.99
2022-10-15T05:18:06.230Z,99.99
2022-10-15T05:19:06.235Z,99.99
2022-10-15T05:20:06.243Z,99.99
2022-10-15T05:21:06.245Z,99.99
2022-10-15T05:22:06.256Z,99.99
2022-10-15T05:23:06.257Z,99.99
2022-10-15T05:24:06.272Z,99.99
2022-10-15T05:25:06.273Z,99.99
2022-10-15T05:26:06.282Z,99.99
2022-10-15T05:27:06.308Z,99.99
2022-10-15T05:28:06.297Z,99.99
2022-10-15T05:29:06.320Z,99.99
2022-10-15T05:30:06.312Z,99.99
2022-10-15T05:31:06.321Z,99.99
2022-10-15T05:32:06.455Z,99.99
2022-10-15T05:33:06.344Z,99.99
2022-10-15T05:34:06.357Z,99.99
2022-10-15T05:35:06.350Z,99.99
2022-10-15T05:36:06.370Z,99.99
2022-10-15T05:37:06.365Z,99.99
2022-10-15T05:38:06.382Z,99.99
2022-10-15T05:39:06.387Z,99.99
2022-10-15T05:40:06.396Z,99.99
2022-10-15T05:41:06.403Z,99.99
2022-10-15T05:42:06.406Z,99.99
2022-10-15T05:43:06.451Z,99.99
2022-10-15T05:44:06.426Z,99.99
2022-10-15T05:45:06.426Z,99.99
2022-10-15T05:46:06.444Z,99.99
2022-10-15T05:47:06.441Z,99.99
2022-10-15T05:48:06.453Z,99.99
2022-10-15T05:49:06.468Z,99.99
2022-10-15T05:50:09.513Z,99.99
2022-10-15T05:51:06.473Z,99.99
2022-10-15T05:52:06.480Z,99.99
2022-10-15T05:53:06.497Z,99.99
2022-10-15T05:54:06.505Z,99.99
2022-10-15T05:55:06.511Z,99.99
2022-10-15T05:56:06.511Z,99.99
2022-10-15T05:57:06.527Z,99.99
2022-10-15T05:58:06.526Z,99.99
2022-10-15T05:59:06.564Z,99.99
2022-10-15T06:00:06.547Z,99.99
2022-10-15T06:01:06.557Z,99.99
2022-10-15T06:02:06.601Z,99.99
2022-10-15T06:03:06.573Z,99.99
2022-10-15T06:04:06.579Z,99.99
2022-10-15T06:05:06.589Z,99.99
2022-10-15T06:06:06.597Z,99.99
2022-10-15T06:07:06.596Z,99.99
2022-10-15T06:08:06.611Z,99.99
2022-10-15T06:09:06.610Z,99.99
2022-10-15T06:10:06.629Z,99.99
2022-10-15T06:11:09.267Z,99.99
2022-10-15T06:12:06.635Z,99.99
2022-10-15T06:13:06.642Z,99.99
2022-10-15T06:14:06.658Z,99.99
2022-10-15T06:15:06.676Z,99.99
2022-10-15T06:16:06.669Z,99.99
2022-10-15T06:17:06.679Z,99.99
2022-10-15T06:18:06.680Z,99.99
2022-10-15T06:19:06.688Z,99.99
2022-10-15T06:20:06.697Z,99.99
2022-10-15T06:21:06.712Z,99.99
2022-10-15T06:22:06.712Z,99.99
2022-10-15T06:23:06.719Z,99.99
2022-10-15T06:24:09.877Z,99.99
2022-10-15T06:25:06.735Z,99.99
2022-10-15T06:26:06.751Z,99.99
2022-10-15T06:27:06.749Z,99.99
2022-10-15T06:28:06.758Z,99.99
2022-10-15T06:29:06.772Z,99.99
2022-10-15T06:30:06.774Z,99.99
2022-10-15T06:31:06.802Z,99.99
2022-10-15T06:32:06.797Z,99.99
2022-10-15T06:33:06.831Z,99.99
2022-10-15T06:34:06.816Z,99.99
2022-10-15T06:35:06.818Z,99.99
2022-10-15T06:36:06.833Z,99.99
2022-10-15T06:37:06.834Z,99.99
2022-10-15T06:38:06.843Z,99.99
2022-10-15T06:39:06.842Z,99.99
2022-10-15T06:40:06.850Z,99.99
2022-10-15T06:41:06.869Z,99.99
2022-10-15T06:42:06.866Z,99.99
2022-10-15T06:43:06.882Z,99.99
2022-10-15T06:44:06.888Z,99.99
2022-10-15T06:45:06.899Z,99.99
2022-10-15T06:46:06.896Z,99.99
2022-10-15T06:47:06.934Z,99.99
2022-10-15T06:48:06.912Z,99.99
2022-10-15T06:49:06.922Z,99.99
2022-10-15T06:50:06.936Z,99.99
2022-10-15T06:51:06.946Z,99.99
2022-10-15T06:52:06.953Z,99.99
2022-10-15T06:53:06.962Z,99.99
2022-10-15T06:54:06.968Z,99.99
2022-10-15T06:55:06.978Z,99.99
2022-10-15T06:56:06.977Z,99.99
2022-10-15T06:57:06.986Z,99.99
2022-10-15T06:58:07.003Z,99.99
2022-10-15T06:59:07.007Z,99.99
2022-10-15T07:00:07.010Z,99.99
2022-10-15T07:01:07.020Z,99.99
2022-10-15T07:02:07.038Z,99.99
2022-10-15T07:03:07.118Z,99.99
2022-10-15T07:04:07.050Z,99.99
2022-10-15T07:05:07.056Z,99.99
2022-10-15T07:06:07.064Z,99.99
2022-10-15T07:07:07.077Z,99.99
2022-10-15T07:08:07.075Z,99.99
2022-10-15T07:09:07.083Z,99.99
2022-10-15T07:10:07.099Z,99.99
2022-10-15T07:11:07.111Z,99.99
2022-10-15T07:12:07.115Z,99.99
2022-10-15T07:13:07.118Z,99.99
2022-10-15T07:14:07.124Z,99.99
2022-10-15T07:15:07.142Z,99.99
2022-10-15T07:16:07.141Z,99.99
2022-10-15T07:17:07.148Z,99.99
2022-10-15T07:18:07.160Z,99.99
2022-10-15T07:19:07.199Z,99.99
2022-10-15T07:20:07.173Z,99.99
2022-10-15T07:21:07.274Z,99.99
2022-10-15T07:22:07.197Z,99.99
2022-10-15T07:23:07.209Z,99.99
2022-10-15T07:24:07.206Z,99.99
2022-10-15T07:25:07.219Z,99.99
2022-10-15T07:26:07.224Z,99.99
2022-10-15T07:27:08.210Z,99.99
2022-10-15T07:28:07.250Z,99.99
2022-10-15T07:29:07.249Z,99.99
2022-10-15T07:30:07.258Z,99.99
2022-10-15T07:31:07.274Z,99.99
2022-10-15T07:32:07.280Z,99.99
2022-10-15T07:33:07.291Z,99.99
2022-10-15T07:34:07.289Z,99.99
2022-10-15T07:35:07.327Z,99.99
2022-10-15T07:36:07.313Z,99.99
2022-10-15T07:37:07.318Z,99.99
2022-10-15T07:38:07.330Z,99.99
2022-10-15T07:39:07.333Z,99.99
2022-10-15T07:40:07.339Z,99.99
2022-10-15T07:41:07.349Z,99.99
2022-10-15T07:42:07.414Z,99.99
2022-10-15T07:43:07.372Z,99.96
2022-10-15T07:44:07.378Z,99.99
2022-10-15T07:45:07.381Z,99.99
2022-10-15T07:46:07.410Z,99.96
2022-10-15T07:47:07.399Z,99.99
2022-10-15T07:48:07.409Z,99.87
2022-10-15T07:49:07.418Z,99.87
2022-10-15T07:50:07.432Z,99.99
2022-10-15T07:51:07.550Z,99.99
2022-10-15T07:52:07.449Z,99.99
2022-10-15T07:53:07.459Z,99.99
2022-10-15T07:54:07.465Z,99.99
2022-10-15T07:55:07.475Z,99.68
2022-10-15T07:56:07.476Z,99.99
2022-10-15T07:57:07.492Z,99.87
2022-10-15T07:58:07.495Z,99.68
2022-10-15T07:59:07.508Z,99.68
2022-10-15T08:00:07.518Z,99.73
2022-10-15T08:01:07.525Z,99.91
2022-10-15T08:02:07.536Z,99.63
2022-10-15T08:03:07.542Z,99.63
2022-10-15T08:04:07.557Z,99.73
2022-10-15T08:05:07.558Z,99.82
2022-10-15T08:06:07.563Z,99.91
2022-10-15T08:07:10.195Z,99.99
2022-10-15T08:21:17.724Z,98.05
2022-10-15T08:22:17.753Z,97.56
2022-10-15T08:23:17.739Z,97.28
2022-10-15T08:28:26.960Z,97.14
2022-10-15T08:29:26.936Z,97.04
2022-10-15T08:30:26.942Z,96.75
2022-10-15T08:32:59.588Z,96.27
2022-10-15T08:33:59.608Z,96.47
2022-10-15T08:34:59.606Z,96.18
2022-10-15T08:35:59.618Z,96.47
2022-10-15T08:36:59.638Z,96.47
2022-10-15T08:37:59.657Z,96.37
2022-10-15T08:38:59.646Z,95.70
2022-10-15T08:39:59.655Z,95.79
2022-10-15T08:40:59.666Z,95.50
2022-10-15T08:41:59.674Z,95.41
2022-10-15T08:42:59.686Z,95.70
2022-10-15T08:43:59.694Z,95.31
2022-10-15T08:44:59.706Z,95.31
2022-10-15T08:45:59.721Z,95.60
2022-10-15T08:46:59.728Z,95.41
2022-10-15T08:47:59.741Z,95.03
2022-10-15T08:48:59.741Z,94.98
2022-10-15T08:49:59.760Z,94.59
2022-10-15T08:50:59.763Z,94.98
2022-10-15T08:51:59.772Z,94.21
2022-10-15T08:52:59.788Z,94.01
2022-10-15T08:53:59.823Z,94.35
2022-10-15T08:54:59.806Z,93.87
2022-10-15T08:55:59.821Z,93.87
2022-10-15T08:56:59.820Z,93.29
2022-10-15T08:57:59.832Z,93.44
2022-10-15T09:02:28.295Z,91.42
2022-10-15T09:03:28.309Z,91.32
2022-10-15T09:05:10.854Z,90.65
2022-10-15T09:06:10.866Z,90.36
2022-10-15T09:07:10.876Z,90.45
2022-10-15T09:08:10.893Z,90.45
2022-10-15T09:09:10.923Z,89.88
2022-10-15T09:10:13.536Z,89.59
2022-10-15T09:11:10.926Z,89.88
2022-10-15T09:24:56.696Z,88.63
2022-10-15T09:26:54.266Z,88.73
2022-10-15T09:27:54.277Z,88.53
2022-10-15T09:28:54.367Z,88.44
2022-10-15T09:29:54.290Z,88.34
2022-10-15T09:30:54.310Z,88.53
2022-10-15T09:31:54.374Z,88.53
2022-10-15T09:32:54.758Z,88.63
2022-10-15T09:33:54.339Z,88.53
2022-10-15T09:35:00.608Z,88.44
2022-10-15T09:35:54.350Z,88.73
2022-10-15T09:36:54.368Z,88.82
2022-10-15T09:37:54.371Z,88.63
2022-10-15T09:38:54.383Z,88.53
2022-10-15T09:39:54.399Z,88.53
2022-10-15T09:40:54.423Z,88.63
2022-10-15T09:41:54.413Z,88.63
2022-10-15T09:42:54.424Z,88.39
2022-10-15T09:43:55.244Z,88.63
2022-10-15T09:44:54.451Z,88.63
2022-10-15T09:45:54.860Z,88.63
2022-10-15T09:46:54.465Z,88.63
2022-10-15T09:47:54.477Z,88.63
2022-10-15T09:48:54.486Z,88.73
2022-10-15T09:49:54.504Z,88.63
2022-10-15T09:50:54.512Z,88.34
2022-10-15T09:51:57.148Z,88.44
2022-10-15T09:52:54.528Z,87.96
2022-10-15T09:53:54.539Z,88.19
2022-10-15T09:54:57.180Z,88.10
2022-10-15T09:55:54.568Z,88.29
2022-10-15T09:56:54.652Z,87.71
2022-10-15T10:51:23.649Z,76.45
2022-10-15T10:52:23.643Z,76.36
2022-10-15T11:52:03.382Z,72.12
2022-10-15T11:53:03.372Z,72.12
2022-10-15T11:54:03.384Z,72.41
2022-10-15T11:55:03.399Z,72.89
2022-10-15T11:56:46.018Z,73.57
2022-10-15T12:07:25.231Z,74.58
2022-10-15T12:08:25.224Z,74.88
2022-10-15T12:09:25.228Z,74.88
2022-10-15T12:10:25.240Z,74.78
2022-10-15T12:11:25.256Z,75.01
2022-10-15T12:12:25.634Z,75.10
2022-10-15T15:13:13.123Z,70.09
2022-10-15T15:14:13.117Z,69.99
2022-10-15T15:15:13.122Z,70.28
2022-10-15T15:16:13.140Z,70.66
2022-10-15T15:17:13.150Z,70.34
2022-10-15T15:18:13.162Z,70.43
2022-10-15T15:19:13.173Z,71.11
2022-10-15T15:20:13.188Z,71.01
2022-10-15T15:21:13.187Z,70.92
2022-10-15T15:22:13.198Z,71.49
2022-10-15T15:23:13.211Z,71.20
2022-10-15T15:24:13.218Z,71.01
2022-10-15T15:25:13.233Z,71.59
2022-10-15T15:26:13.248Z,71.59
2022-10-15T15:27:13.255Z,71.69
2022-10-15T15:28:13.264Z,71.49
2022-10-15T15:29:13.754Z,71.40
2022-10-15T15:30:13.295Z,71.30
2022-10-15T15:31:13.297Z,71.49
2022-10-15T15:32:13.309Z,71.69
2022-10-15T15:33:13.326Z,72.26
2022-10-15T15:34:13.331Z,71.59
2022-10-15T15:35:13.341Z,71.97
2022-10-15T15:36:13.358Z,71.97
2022-10-15T15:37:13.361Z,72.26
2022-10-15T15:38:13.375Z,72.07
2022-10-15T15:39:13.391Z,72.42
2022-10-15T15:40:13.403Z,72.71
2022-10-15T15:41:13.405Z,72.42
2022-10-15T15:42:13.415Z,72.32
2022-10-15T15:43:13.442Z,72.03
2022-10-15T15:44:13.435Z,72.52
2022-10-15T15:45:13.466Z,72.71
2022-10-15T15:46:13.456Z,72.71
2022-10-15T15:47:13.476Z,72.61
2022-10-15T15:48:13.476Z,72.71
2022-10-15T15:49:13.490Z,73.09
2022-10-15T15:50:13.513Z,72.52
2022-10-15T15:51:13.519Z,73.09
2022-10-15T15:52:13.526Z,72.90
2022-10-15T15:53:13.530Z,73.38
2022-10-15T15:54:13.551Z,73.28
2022-10-15T15:55:13.558Z,73.96
2022-10-15T15:56:13.563Z,73.63
2022-10-15T15:57:13.581Z,73.63
2022-10-15T15:58:13.583Z,73.83
2022-10-15T15:59:13.594Z,73.63
2022-10-15T16:00:13.602Z,73.96
2022-10-15T16:01:13.640Z,74.05
2022-10-15T16:02:13.625Z,74.11
2022-10-15T16:03:13.642Z,74.34
2022-10-15T16:04:13.652Z,74.21
2022-10-15T16:05:13.662Z,74.44
2022-10-15T16:06:13.674Z,74.50
2022-10-15T16:07:13.791Z,74.30
2022-10-15T16:08:13.692Z,74.60
2022-10-15T16:09:13.702Z,74.60
2022-10-15T16:10:13.713Z,74.98
2022-10-15T16:11:13.724Z,74.88
2022-10-15T16:12:13.731Z,74.69
2022-10-15T16:13:13.742Z,74.79
2022-10-15T16:14:13.745Z,74.60
2022-10-15T16:15:15.023Z,74.88
2022-10-15T16:16:13.765Z,74.79
2022-10-15T16:18:21.398Z,74.98
2022-10-15T16:19:21.381Z,75.17
2022-10-15T16:20:21.391Z,75.65
2022-10-15T16:21:21.409Z,75.65
2022-10-15T16:22:21.412Z,75.94
2022-10-15T16:23:21.422Z,76.14
2022-10-15T16:24:21.432Z,76.42
2022-10-15T16:25:22.504Z,76.52
2022-10-15T16:26:21.461Z,76.42
2022-10-15T16:27:21.463Z,76.42
2022-10-15T16:28:21.531Z,76.52
2022-10-15T16:29:21.482Z,76.61
2022-10-15T16:30:21.498Z,77.48
2022-10-15T16:31:24.188Z,77.09
2022-10-15T16:32:21.652Z,77.48
2022-10-15T16:33:21.530Z,77.67
2022-10-15T16:34:21.561Z,77.48
2022-10-15T16:35:21.549Z,77.48
2022-10-15T16:36:21.558Z,77.76
2022-10-15T16:37:21.560Z,77.96
2022-10-15T16:38:21.576Z,78.06
2022-10-15T16:39:21.588Z,78.34
2022-10-15T16:40:21.590Z,78.34
2022-10-15T16:41:21.599Z,78.63
2022-10-15T16:42:24.436Z,78.25
2022-10-15T16:43:24.240Z,78.25
2022-10-15T16:44:21.628Z,78.34
2022-10-15T16:45:21.647Z,78.25
2022-10-15T16:46:21.655Z,79.02
2022-10-15T16:47:21.666Z,78.92
2022-10-15T16:48:21.669Z,78.83
2022-10-15T16:49:21.677Z,79.21
2022-10-15T16:50:21.812Z,79.30
2022-10-15T16:51:21.765Z,79.50
2022-10-15T16:52:21.754Z,79.50
2022-10-15T16:53:21.723Z,79.50
2022-10-15T16:54:21.728Z,79.60
2022-10-15T16:58:35.151Z,79.69
2022-10-15T17:12:45.973Z,80.61
2022-10-15T17:13:45.970Z,80.51
2022-10-15T17:14:45.971Z,80.61
2022-10-15T17:15:45.988Z,80.51
2022-10-15T17:16:45.994Z,80.99
2022-10-15T17:17:46.001Z,80.71
2022-10-15T17:18:46.071Z,81.09
2022-10-15T17:19:46.022Z,81.57
2022-10-15T17:20:46.038Z,81.19
2022-10-15T17:21:47.040Z,81.28
2022-10-15T17:22:46.049Z,81.28
2022-10-15T17:23:46.059Z,81.38
2022-10-15T17:24:46.066Z,81.28
2022-10-15T17:25:46.078Z,81.38
2022-10-15T17:26:46.087Z,81.28
2022-10-15T17:27:46.097Z,81.96
2022-10-15T17:28:46.124Z,81.38
2022-10-15T17:29:46.124Z,82.05
2022-10-15T17:30:46.123Z,81.96
2022-10-15T17:31:46.145Z,81.86
2022-10-15T17:32:46.149Z,82.24
2022-10-15T17:33:46.153Z,82.92
2022-10-15T17:34:46.162Z,82.92
2022-10-15T17:35:46.171Z,83.01
2022-10-15T17:36:46.179Z,82.73
2022-10-15T17:37:46.192Z,82.63
2022-10-15T17:38:46.199Z,82.63
2022-10-15T17:39:46.260Z,83.11
2022-10-15T17:40:46.266Z,83.49
2022-10-15T17:41:46.235Z,83.11
2022-10-15T17:42:46.235Z,82.92
2022-10-15T17:43:46.246Z,83.20
2022-10-15T17:44:46.283Z,83.11
2022-10-15T17:45:46.265Z,83.01
2022-10-15T17:46:46.330Z,83.11
2022-10-15T17:47:46.291Z,83.40
2022-10-15T17:48:46.300Z,83.16
2022-10-15T17:49:46.310Z,83.74
2022-10-15T17:50:46.317Z,83.64
2022-10-15T17:51:46.327Z,83.74
2022-10-15T17:52:46.329Z,84.03
2022-10-15T17:53:46.339Z,83.74
2022-10-15T17:54:46.348Z,84.22
2022-10-15T17:55:46.357Z,83.84
2022-10-15T17:56:46.382Z,84.12
2022-10-15T17:57:46.374Z,84.51
2022-10-15T17:58:46.391Z,84.41
2022-10-15T17:59:48.846Z,84.41
2022-10-15T18:00:46.432Z,84.12
2022-10-15T18:01:57.900Z,84.41
2022-10-15T18:02:46.451Z,84.41
2022-10-15T18:03:46.429Z,84.70
2022-10-15T18:04:46.440Z,84.51
2022-10-15T18:05:46.454Z,84.89
2022-10-15T18:06:46.464Z,84.89
2022-10-15T18:07:46.472Z,85.18
2022-10-15T18:08:46.483Z,85.08
2022-10-15T18:09:46.492Z,84.80
2022-10-15T18:10:46.499Z,85.18
2022-10-15T18:11:46.555Z,85.28
2022-10-15T18:12:46.510Z,84.89
2022-10-15T18:13:46.533Z,85.47
2022-10-15T18:14:46.542Z,85.37
2022-10-15T18:15:46.539Z,84.89
2022-10-15T18:16:46.575Z,85.37
2022-10-15T18:17:46.564Z,85.28
2022-10-15T18:18:46.566Z,85.08
2022-10-15T18:19:46.574Z,85.71
2022-10-15T18:20:46.586Z,85.66
2022-10-15T18:21:49.503Z,85.75
2022-10-15T18:22:46.611Z,85.99
2022-10-15T18:23:46.621Z,86.05
2022-10-15T18:24:46.621Z,86.14
2022-10-15T18:25:46.648Z,86.24
2022-10-15T18:26:46.641Z,86.24
2022-10-15T18:27:46.652Z,86.91
2022-10-15T18:28:46.727Z,86.72
2022-10-15T18:29:46.667Z,86.91
2022-10-15T18:30:46.682Z,86.91
2022-10-15T18:31:46.783Z,86.91
2022-10-15T18:32:46.714Z,86.91
2022-10-15T18:33:46.704Z,87.96
2022-10-15T18:34:46.717Z,87.19
2022-10-15T18:35:46.720Z,87.58
2022-10-15T18:36:46.735Z,87.68
2022-10-15T18:37:46.743Z,87.49
2022-10-15T18:38:46.753Z,87.58
2022-10-15T18:39:46.764Z,87.29
2022-10-15T18:40:46.772Z,87.68
2022-10-15T18:41:46.778Z,87.87
2022-10-15T18:42:47.843Z,87.87
2022-10-15T18:43:46.800Z,87.96
2022-10-15T18:44:46.801Z,88.06
2022-10-15T18:45:46.819Z,87.87
2022-10-15T18:46:46.820Z,88.06
2022-10-15T18:47:46.826Z,87.87
2022-10-15T18:48:46.874Z,88.06
2022-10-15T18:49:46.845Z,88.06
2022-10-15T18:51:46.868Z,88.35
2022-10-15T18:52:47.417Z,88.45
2022-10-15T18:53:46.889Z,88.25
2022-10-15T18:54:46.890Z,88.35
2022-10-15T18:55:46.899Z,88.73
2022-10-15T18:56:46.919Z,88.64
2022-10-15T18:57:46.924Z,88.64
2022-10-15T18:58:46.926Z,88.64
2022-10-15T18:59:46.978Z,88.64
2022-10-15T19:00:46.952Z,88.83
2022-10-15T19:01:47.045Z,88.54
2022-10-15T19:02:46.969Z,88.45
2022-10-15T19:03:46.972Z,88.54
2022-10-15T19:04:47.015Z,88.73
2022-10-15T19:05:46.990Z,88.54
2022-10-15T19:06:47.004Z,88.45
2022-10-15T19:07:47.014Z,88.45
2022-10-15T19:08:47.074Z,88.54
2022-10-15T19:09:47.032Z,88.64
2022-10-15T19:10:47.039Z,88.54
2022-10-15T19:11:47.053Z,88.54
2022-10-15T19:12:47.058Z,88.64
2022-10-15T19:13:47.066Z,88.45
2022-10-15T19:14:47.069Z,88.64
2022-10-15T19:15:47.088Z,88.45
2022-10-15T19:16:47.110Z,88.64
2022-10-15T19:17:47.105Z,88.35
2022-10-15T19:18:47.112Z,88.35
2022-10-15T19:19:47.115Z,88.93
2022-10-15T19:20:47.144Z,89.22
2022-10-15T19:21:47.147Z,88.83
2022-10-15T19:22:47.148Z,88.64
2022-10-15T19:23:47.157Z,88.93
2022-10-15T19:24:47.159Z,89.40